Disclaimer

Please do not use the information listed here in-flight or in-navigation, as they are not provided to us by the airports but are provided by volunteers, so they might be outdated.

Search


Regions


Airport information page

Radio informations:
Tower (TWR) - 118.3 MHz
MINSK VOLMET - 126.675 MHz
Ground (GND) - 121.7 MHz
Automatic Terminal Information Service (ATIS) - 128.85 MHz

Airport informations:
Latitude: 53° 52' 56.89" N
Longitude: 028° 01' 50.63" E
Elevation: 670 feet - 204 meters
Operating hours: 24 hour operations
Operating agency: Civil government, landing fees and diplomatic clearance may be required
Timezone: UTC+2(+3DT) - Last Sunday in March to last Sunday in October
Fuel: N/A

Runway information:
13/31 - 11946 x 197 feet< - >3641 x 60 meters

Recent METARs:
UMMS 210100Z 34003MPS 9999 BKN014 M01/M03 Q1028 R31/CLRD// NOSIG
UMMS 210130Z 03002MPS 010V090 9999 BKN014 M02/M04 Q1029 R31/CLRD// NOSIG
UMMS 210200Z 01003MPS 9999 BKN013 M02/M04 Q1029 R31/CLRD// NOSIG

Airport on the map: